createdAt,value
2022-08-28T00:02:48.328Z,100.00
2022-08-28T00:07:50.986Z,100.00
2022-08-28T00:12:58.449Z,100.00
2022-08-28T00:18:01.145Z,100.00
2022-08-28T00:23:04.598Z,100.00
2022-08-28T00:28:10.071Z,100.00
2022-08-28T00:33:27.492Z,100.00
2022-08-28T00:38:31.130Z,100.00
2022-08-28T00:43:42.726Z,100.00
2022-08-28T00:48:45.200Z,100.00
2022-08-28T00:53:47.430Z,100.00
2022-08-28T00:58:52.321Z,100.00
2022-08-28T01:03:54.633Z,100.00
2022-08-28T01:08:57.373Z,100.00
2022-08-28T01:14:03.045Z,100.00
2022-08-28T01:19:13.493Z,100.00
2022-08-28T01:24:18.989Z,100.00
2022-08-28T01:29:21.433Z,100.00
2022-08-28T01:34:24.218Z,100.00
2022-08-28T01:39:27.649Z,100.00
2022-08-28T01:44:30.047Z,100.00
2022-08-28T01:49:32.322Z,100.00
2022-08-28T01:54:34.470Z,100.00
2022-08-28T01:59:38.454Z,100.00
2022-08-28T02:04:47.579Z,100.00
2022-08-28T02:09:50.640Z,100.00
2022-08-28T02:14:53.327Z,100.00
2022-08-28T02:19:55.715Z,100.00
2022-08-28T02:24:58.112Z,100.00
2022-08-28T02:30:00.530Z,100.00
2022-08-28T02:35:02.744Z,100.00
2022-08-28T02:40:05.760Z,100.00
2022-08-28T02:45:10.941Z,100.00
2022-08-28T02:50:16.952Z,100.00
2022-08-28T02:55:20.340Z,100.00
2022-08-28T03:00:25.602Z,100.00
2022-08-28T03:05:28.150Z,100.00
2022-08-28T03:10:31.005Z,100.00
2022-08-28T03:15:33.409Z,100.00
2022-08-28T03:20:35.890Z,100.00
2022-08-28T03:25:39.523Z,100.00
2022-08-28T03:30:41.716Z,100.00
2022-08-28T03:35:44.101Z,100.00
2022-08-28T03:40:47.908Z,100.00
2022-08-28T03:45:59.925Z,100.00
2022-08-28T03:51:07.599Z,100.00
2022-08-28T03:56:16.515Z,100.00
2022-08-28T04:01:20.485Z,100.00
2022-08-28T04:06:23.208Z,100.00
2022-08-28T04:11:25.546Z,100.00
2022-08-28T04:16:28.174Z,100.00
2022-08-28T04:21:30.664Z,100.00
2022-08-28T04:26:36.880Z,100.00
2022-08-28T04:31:39.720Z,100.00
2022-08-28T04:36:42.129Z,100.00
2022-08-28T04:41:44.289Z,100.00
2022-08-28T04:46:48.429Z,100.00
2022-08-28T04:51:55.380Z,100.00
2022-08-28T04:56:57.684Z,100.00
2022-08-28T05:01:59.988Z,100.00
2022-08-28T05:07:02.277Z,100.00
2022-08-28T05:12:06.067Z,100.00
2022-08-28T05:17:09.565Z,100.00
2022-08-28T05:22:11.974Z,100.00
2022-08-28T05:27:14.361Z,100.00
2022-08-28T05:32:17.058Z,100.00
2022-08-28T05:37:19.820Z,99.54
2022-08-28T05:42:22.859Z,87.17
2022-08-28T05:47:32.891Z,64.92
2022-08-28T05:52:37.074Z,54.04
2022-08-28T05:57:40.522Z,48.54
2022-08-28T06:02:42.810Z,44.08
2022-08-28T06:07:45.247Z,40.92
2022-08-28T06:12:47.395Z,41.25
2022-08-28T06:17:49.547Z,40.62
2022-08-28T06:22:51.821Z,37.74
2022-08-28T06:27:54.150Z,36.09
2022-08-28T06:32:56.670Z,36.07
2022-08-28T06:37:59.520Z,34.93
2022-08-28T06:43:01.629Z,33.42
2022-08-28T06:48:04.153Z,32.78
2022-08-28T06:53:09.323Z,31.71
2022-08-28T06:58:13.151Z,33.58
2022-08-28T07:03:15.657Z,32.29
2022-08-28T07:08:20.102Z,33.14
2022-08-28T07:13:23.171Z,35.79
2022-08-28T07:18:25.740Z,37.89
2022-08-28T07:23:29.360Z,37.15
2022-08-28T07:28:31.805Z,39.08
2022-08-28T07:33:34.221Z,39.61
2022-08-28T07:38:36.805Z,39.04
2022-08-28T07:43:57.611Z,38.30
2022-08-28T07:49:01.056Z,37.37
2022-08-28T07:54:04.204Z,35.89
2022-08-28T07:59:07.837Z,33.59
2022-08-28T08:04:14.349Z,36.14
2022-08-28T08:09:19.479Z,35.12
2022-08-28T08:14:21.873Z,34.27
2022-08-28T08:19:24.122Z,35.79
2022-08-28T08:24:28.657Z,33.22
2022-08-28T08:29:35.709Z,29.30
2022-08-28T08:34:42.403Z,30.21
2022-08-28T08:39:44.845Z,28.00
2022-08-28T08:44:48.643Z,27.99
2022-08-28T08:49:58.889Z,26.08
2022-08-28T08:55:23.386Z,24.33
2022-08-28T09:00:26.091Z,21.08
2022-08-28T09:05:41.797Z,20.56
2022-08-28T09:10:51.970Z,20.82
2022-08-28T09:15:54.438Z,20.72
2022-08-28T09:20:59.088Z,21.62
2022-08-28T09:26:04.733Z,21.55
2022-08-28T09:31:16.186Z,20.75
2022-08-28T09:36:32.913Z,21.09
2022-08-28T09:42:24.737Z,20.83
2022-08-28T09:47:46.992Z,21.21
2022-08-28T09:52:51.334Z,21.92
2022-08-28T09:57:54.982Z,21.62
2022-08-28T10:03:09.286Z,21.45
2022-08-28T10:08:23.694Z,22.39
2022-08-28T10:13:39.655Z,21.12
2022-08-28T10:18:46.361Z,21.72
2022-08-28T10:23:58.783Z,24.16
2022-08-28T10:29:25.540Z,21.62
2022-08-28T10:34:43.354Z,22.02
2022-08-28T10:40:00.907Z,21.02
2022-08-28T10:45:13.229Z,21.99
2022-08-28T10:50:21.708Z,21.44
2022-08-28T10:55:36.553Z,20.32
2022-08-28T11:00:43.426Z,20.25
2022-08-28T11:05:54.396Z,20.95
2022-08-28T11:10:59.812Z,20.82
2022-08-28T11:16:12.545Z,21.11
2022-08-28T11:21:44.503Z,19.91
2022-08-28T11:27:07.004Z,20.57
2022-08-28T11:32:50.690Z,19.46
2022-08-28T11:37:55.169Z,20.71
2022-08-28T11:43:16.425Z,20.33
2022-08-28T11:48:37.656Z,21.35
2022-08-28T11:54:03.993Z,22.18
2022-08-28T11:59:37.193Z,22.42
2022-08-28T12:04:43.425Z,24.43
2022-08-28T12:09:48.767Z,24.28
2022-08-28T12:15:07.807Z,23.67
2022-08-28T12:20:39.140Z,25.42
2022-08-28T12:25:44.552Z,26.62
2022-08-28T12:31:08.910Z,25.24
2022-08-28T12:36:18.738Z,26.10
2022-08-28T12:41:24.777Z,25.87
2022-08-28T12:46:36.512Z,24.90
2022-08-28T12:51:38.870Z,25.47
2022-08-28T12:56:41.113Z,24.13
2022-08-28T13:01:44.817Z,25.69
2022-08-28T13:06:47.419Z,24.99
2022-08-28T13:11:51.810Z,24.38
2022-08-28T13:16:54.110Z,24.97
2022-08-28T13:22:02.833Z,25.20
2022-08-28T13:27:13.236Z,24.82
2022-08-28T13:32:18.175Z,25.75
2022-08-28T13:37:44.065Z,27.75
2022-08-28T13:42:47.497Z,26.22
2022-08-28T13:47:49.809Z,25.90
2022-08-28T13:52:52.001Z,25.53
2022-08-28T13:57:55.278Z,25.28
2022-08-28T14:03:16.394Z,25.06
2022-08-28T14:08:18.681Z,25.23
2022-08-28T14:13:23.271Z,26.54
2022-08-28T14:18:26.594Z,29.28
2022-08-28T14:23:29.135Z,29.90
2022-08-28T14:28:31.356Z,30.50
2022-08-28T14:33:34.323Z,31.12
2022-08-28T14:39:06.041Z,30.38
2022-08-28T14:44:09.426Z,31.19
2022-08-28T14:49:13.995Z,33.89
2022-08-28T14:54:19.297Z,35.83
2022-08-28T14:59:26.524Z,37.22
2022-08-28T15:04:38.312Z,40.38
2022-08-28T15:09:42.509Z,37.79
2022-08-28T15:14:55.212Z,38.65
2022-08-28T15:20:00.742Z,40.23
2022-08-28T15:25:03.687Z,42.45
2022-08-28T15:30:06.823Z,42.55
2022-08-28T15:35:09.557Z,43.11
2022-08-28T15:40:30.306Z,43.44
2022-08-28T15:45:37.944Z,43.02
2022-08-28T15:50:41.876Z,46.12
2022-08-28T15:55:47.616Z,46.39
2022-08-28T16:00:50.459Z,54.48
2022-08-28T16:05:53.061Z,52.04
2022-08-28T16:10:55.984Z,58.29
2022-08-28T16:15:58.225Z,62.27
2022-08-28T16:21:04.702Z,64.26
2022-08-28T16:26:08.816Z,66.64
2022-08-28T16:35:56.448Z,70.95
2022-08-28T16:36:35.658Z,73.54
2022-08-28T16:41:39.338Z,69.03
2022-08-28T16:46:46.828Z,73.09
2022-08-28T16:51:49.779Z,73.48
2022-08-28T16:56:52.309Z,77.80
2022-08-28T17:01:54.876Z,74.36
2022-08-28T17:06:57.598Z,75.96
2022-08-28T17:12:00.315Z,78.50
2022-08-28T17:17:02.838Z,77.59
2022-08-28T17:22:23.451Z,77.77
2022-08-28T17:27:30.490Z,78.45
2022-08-28T17:32:33.083Z,80.94
2022-08-28T17:37:37.664Z,82.32
2022-08-28T17:42:40.054Z,84.02
2022-08-28T17:47:43.671Z,84.98
2022-08-28T17:52:46.219Z,87.84
2022-08-28T17:57:49.254Z,89.17
2022-08-28T18:02:52.697Z,90.42
2022-08-28T18:07:55.293Z,92.72
2022-08-28T18:12:57.977Z,93.89
2022-08-28T18:18:00.370Z,94.42
2022-08-28T18:23:03.435Z,92.54
2022-08-28T18:28:06.782Z,92.29
2022-08-28T18:33:10.277Z,93.67
2022-08-28T18:38:14.447Z,93.78
2022-08-28T18:43:20.547Z,94.41
2022-08-28T18:48:23.308Z,96.34
2022-08-28T18:53:25.887Z,95.35
2022-08-28T18:58:28.290Z,95.59
2022-08-28T19:03:31.107Z,94.49
2022-08-28T19:08:36.877Z,95.46
2022-08-28T19:13:43.961Z,96.00
2022-08-28T19:18:47.928Z,95.97
2022-08-28T19:23:55.980Z,97.45
2022-08-28T19:28:58.766Z,97.54
2022-08-28T19:34:01.259Z,100.00
2022-08-28T19:39:04.186Z,100.00
2022-08-28T19:44:07.103Z,100.00
2022-08-28T19:49:09.552Z,100.00
2022-08-28T19:54:14.509Z,99.25
2022-08-28T19:59:16.872Z,98.60
2022-08-28T20:04:19.563Z,97.39
2022-08-28T20:09:21.905Z,98.32
2022-08-28T20:14:24.120Z,99.61
2022-08-28T20:19:26.839Z,100.00
2022-08-28T20:24:29.952Z,100.00
2022-08-28T20:29:34.440Z,100.00
2022-08-28T20:34:38.646Z,100.00
2022-08-28T20:39:43.913Z,100.00
2022-08-28T20:44:46.095Z,100.00
2022-08-28T20:49:48.261Z,100.00
2022-08-28T20:54:50.569Z,100.00
2022-08-28T20:59:54.388Z,100.00
2022-08-28T21:04:59.330Z,100.00
2022-08-28T21:10:07.157Z,100.00
2022-08-28T21:15:13.080Z,100.00
2022-08-28T21:20:16.501Z,100.00
2022-08-28T21:25:21.088Z,100.00
2022-08-28T21:30:23.637Z,100.00
2022-08-28T21:35:32.121Z,100.00
2022-08-28T21:40:35.859Z,100.00
2022-08-28T21:45:38.194Z,100.00
2022-08-28T21:50:43.199Z,100.00
2022-08-28T21:55:53.330Z,100.00
2022-08-28T22:00:59.298Z,100.00
2022-08-28T22:06:01.714Z,100.00
2022-08-28T22:11:04.434Z,100.00
2022-08-28T22:16:07.684Z,100.00
2022-08-28T22:21:34.246Z,100.00
2022-08-28T22:26:36.606Z,100.00
2022-08-28T22:31:45.648Z,100.00
2022-08-28T22:36:48.673Z,100.00
2022-08-28T22:41:51.566Z,100.00
2022-08-28T22:46:53.779Z,100.00
2022-08-28T22:51:56.025Z,100.00
2022-08-28T22:56:58.613Z,100.00
2022-08-28T23:02:01.433Z,100.00
2022-08-28T23:07:05.077Z,100.00
2022-08-28T23:12:08.105Z,100.00
2022-08-28T23:17:10.539Z,100.00
2022-08-28T23:22:13.492Z,100.00
2022-08-28T23:27:35.791Z,100.00
2022-08-28T23:32:38.832Z,100.00
2022-08-28T23:37:45.519Z,100.00
2022-08-28T23:42:52.079Z,100.00
2022-08-28T23:47:54.451Z,100.00
2022-08-28T23:52:56.825Z,100.00
2022-08-28T23:57:59.682Z,100.00
